Flight Track Log - Related Links

Times and Time Zones

All times are in EDT time to prevent confusion due to time zone crossing. See the DAL268 flight status page for this flight to view local times or setup timezone preferences in your user account.

Time Position Orientation Groundspeed Altitude Reporting Facility
EDT Latitude Longitude Course Direction KTS MPH feet Rate Location/Type
Tue 02:18:31 PM 37.6160 -122.3820 120° Southeast 11 13  Level FlightAware ADS-B
Tue 02:22:25 PM 37.6160 -122.3810 90° East 14 16 14 Level FlightAware ADS-B
Tue 02:25:00 PM 37.8368 -122.1466 38° Northeast  Level FlightAware Approximate
Tue 02:25:03 PM 37.6080 -122.3850 38° Northeast 22 25  Level FlightAware ADS-B
Tue 02:26:22 PM 37.6070 -122.3840 142° Southeast 17 20 25 Level FlightAware ADS-B
Tue 02:29:00 PM 37.8397 -122.1436 38° Northeast  Level FlightAware Approximate
Tue 02:30:00 PM 37.9285 -122.0549 38° Northeast  Level FlightAware Approximate
Tue 02:31:00 PM 38.0080 -121.9618 35° Northeast  Level FlightAware Approximate
Tue 02:32:00 PM 38.1011 -121.8803 35° Northeast  Level FlightAware Approximate
Tue 02:33:02 PM 37.6270 -122.3670 28° Northeast 180 207 200  Level FlightAware ADS-B
Tue 02:33:10 PM 37.6330 -122.3630 28° Northeast 177 204 700 3,000 Climbing FlightAware ADS-B
Tue 02:33:20 PM 37.6392 -122.3580 33° Northeast 178 205 1,100 2,211 Climbing FlightAware ADS-B
Tue 02:33:29 PM 37.6452 -122.3520 38° Northeast 187 215 1,400 1,412 Climbing FlightAware ADS-B
Tue 02:33:37 PM 37.6505 -122.3460 42° Northeast 198 228 1,500 400 Climbing FlightAware ADS-B
Tue 02:33:44 PM 37.6561 -122.3390 45° Northeast 211 243 1,500 857 Level FlightAware ADS-B
Tue 02:33:58 PM 37.6657 -122.3280 42° Northeast 228 262 1,800 1,241 Climbing FlightAware ADS-B
Tue 02:34:13 PM 37.6773 -122.3130 46° Northeast 240 276 2,100 1,355 Climbing FlightAware ADS-B
Tue 02:34:29 PM 37.6909 -122.2950 46° Northeast 262 302 2,500 1,765 Climbing FlightAware ADS-B
Tue 02:34:47 PM 37.7059 -122.2750 47° Northeast 272 313 3,100 2,550 Climbing FlightAware ADS-B
Tue 02:35:09 PM 37.7275 -122.2520 40° Northeast 273 314 4,200 2,864 Climbing FlightAware ADS-B
Tue 02:35:31 PM 37.7543 -122.2490 North 272 313 5,200 2,571 Climbing FlightAware ADS-B
Tue 02:35:44 PM 37.7697 -122.2560 340° North 274 315 5,700 2,667 Climbing FlightAware ADS-B
Tue 02:35:49 PM 37.7758 -122.2600 333° Northwest 274 315 6,000 2,870 Climbing FlightAware ADS-B
Tue 02:36:07 PM 37.7964 -122.2720 335° Northwest 277 319 6,800 2,714 Climbing FlightAware ADS-B
Tue 02:36:31 PM 37.8244 -122.2890 334° Northwest 277 319 7,900 2,435 Climbing FlightAware ADS-B
Tue 02:37:16 PM 37.8790 -122.3180 337° Northwest 293 337 9,600 2,339 Climbing FlightAware ADS-B
Tue 02:37:30 PM 37.8982 -122.3170 North 295 339 10,200 2,276 Climbing FlightAware ADS-B
Tue 02:37:45 PM 37.9164 -122.3060 25° Northeast 295 339 10,700 2,200 Climbing FlightAware ADS-B
Tue 02:38:00 PM 37.9314 -122.2890 42° Northeast 296 341 11,300 2,483 Climbing FlightAware ADS-B
Tue 02:38:14 PM 37.9451 -122.2710 46° Northeast 301 346 11,900 2,217 Climbing FlightAware ADS-B
Tue 02:38:46 PM 37.9754 -122.2290 48° Northeast 309 356 13,000 2,129 Climbing FlightAware ADS-B
Tue 02:39:16 PM 38.0043 -122.1870 49° Northeast 315 362 14,100 2,066 Climbing FlightAware ADS-B
Tue 02:39:47 PM 38.0341 -122.1440 49° Northeast 321 369 15,100 1,905 Climbing FlightAware ADS-B
Tue 02:40:19 PM 38.0657 -122.0990 48° Northeast 327 376 16,100 1,307 Climbing FlightAware ADS-B
Tue 02:41:28 PM 38.1410 -121.9910 48° Northeast 374 430 17,300 1,282 Climbing FlightAware ADS-B
Tue 02:42:02 PM 38.1790 -121.9360 49° Northeast 379 436 18,300 1,701 Climbing FlightAware ADS-B
Tue 02:42:35 PM 38.2189 -121.8780 49° Northeast 383 441 19,200 1,610 Climbing FlightAware ADS-B
Tue 02:43:24 PM 38.2750 -121.7970 49° Northeast 393 452 20,500 1,742 Climbing FlightAware ADS-B
Tue 02:44:08 PM 38.3290 -121.7180 49° Northeast 395 455 21,900 1,658 Climbing FlightAware ADS-B
Tue 02:44:40 PM 38.3670 -121.6640 48° Northeast 400 460 22,600 1,026 Climbing FlightAware ADS-B
Tue 02:45:24 PM 38.4320 -121.5920 41° Northeast 421 484 23,200 767 Climbing FlightAware ADS-B
Tue 02:46:06 PM 38.4950 -121.5260 39° Northeast 438 504 23,700 698 Climbing FlightAware ADS-B
Tue 02:46:50 PM 38.5670 -121.4520 39° Northeast 458 527 24,200 786 Climbing FlightAware ADS-B
Tue 02:47:30 PM 38.6350 -121.3820 39° Northeast 468 539 24,800 889 Climbing FlightAware ADS-B
Tue 02:48:11 PM 38.6930 -121.2990 48° Northeast 474 545 25,400 971 Climbing FlightAware ADS-B
Tue 02:48:38 PM 38.7290 -121.2360 54° Northeast 478 550 25,900 904 Climbing FlightAware ADS-B
Tue 02:49:24 PM 38.7900 -121.1300 54° Northeast 487 560 26,500 1,159 Climbing FlightAware ADS-B
Tue 02:50:06 PM 38.8470 -121.0330 53° Northeast 485 558 27,600 1,425 Climbing FlightAware ADS-B
Tue 02:50:44 PM 38.8990 -120.9450 53° Northeast 483 556 28,400 1,244 Climbing FlightAware ADS-B
Tue 02:51:28 PM 38.9570 -120.8450 53° Northeast 480 552 29,300 977 Climbing FlightAware ADS-B
Tue 02:52:10 PM 39.0080 -120.7450 57° Northeast 487 560 29,800 907 Climbing FlightAware ADS-B
Tue 02:52:54 PM 39.0630 -120.6420 55° Northeast 485 558 30,600 1,098 Climbing FlightAware ADS-B
Tue 02:53:32 PM 39.1110 -120.5520 55° Northeast 484 557 31,300 1,063 Climbing FlightAware ADS-B
Tue 02:54:13 PM 39.1630 -120.4540 56° Northeast 482 555 32,000 1,047 Climbing FlightAware ADS-B
Tue 02:54:58 PM 39.2210 -120.3460 55° Northeast 480 552 32,800 776 Climbing FlightAware ADS-B
Tue 02:55:38 PM 39.2710 -120.2500 56° Northeast 484 557 33,100 776 Climbing FlightAware ADS-B
Tue 02:56:23 PM 39.3260 -120.1460 56° Northeast 480 552 33,900 878 Climbing FlightAware ADS-B
Tue 02:57:00 PM 39.3730 -120.0560 56° Northeast 482 555 34,300 632 Climbing FlightAware ADS-B
Tue 02:57:39 PM 39.4210 -119.9650 56° Northeast 483 556 34,700 519 Climbing FlightAware ADS-B
Tue 02:58:21 PM 39.4750 -119.8620 56° Northeast 484 557 35,000 231 Climbing FlightAware ADS-B
Tue 02:58:57 PM 39.5190 -119.7770 56° Northeast 488 562 35,000  Level FlightAware ADS-B
Tue 02:59:41 PM 39.5740 -119.6700 56° Northeast 488 562 35,000  Level FlightAware ADS-B
Tue 03:00:13 PM 39.6150 -119.5900 56° Northeast 486 559 35,000  Level FlightAware ADS-B
Tue 03:01:05 PM 39.6790 -119.4650 56° Northeast 485 558 35,000  Level FlightAware ADS-B
Tue 03:01:43 PM 39.7250 -119.3750 56° Northeast 485 558 35,000  Level FlightAware ADS-B
Tue 03:02:27 PM 39.7810 -119.2650 56° Northeast 484 557 35,000  Level FlightAware ADS-B
Tue 03:03:07 PM 39.8290 -119.1700 57° Northeast 483 556 35,000  Level FlightAware ADS-B
Tue 03:03:45 PM 39.8760 -119.0760 57° Northeast 483 556 35,000  Level FlightAware ADS-B
Tue 03:04:33 PM 39.9340 -118.9620 56° Northeast 482 555 35,000  Level FlightAware ADS-B
Tue 03:05:13 PM 39.9820 -118.8640 57° Northeast 482 555 35,000  Level FlightAware ADS-B
Tue 03:05:55 PM 40.0340 -118.7600 57° Northeast 482 555 35,000  Level FlightAware ADS-B
Tue 03:06:41 PM 40.0900 -118.6480 57° Northeast 483 556 35,000  Level FlightAware ADS-B
Tue 03:07:17 PM 40.1290 -118.5570 61° Northeast 480 552 35,000  Level FlightAware ADS-B
Tue 03:08:03 PM 40.1660 -118.4340 68° East 479 551 35,000  Level FlightAware ADS-B
Tue 03:08:45 PM 40.1970 -118.3190 71° East 479 551 35,000  Level FlightAware ADS-B
Tue 03:09:08 PM 40.2130 -118.2610 70° East 478 550 35,000  Level FlightAware ADS-B
Tue 03:09:53 PM 40.1980 -118.3130 249° West 478 550 35,000  Level FlightAware ADS-B
Tue 03:10:32 PM 40.2740 -118.0340 70° East 479 551 35,000  Level FlightAware ADS-B
Tue 03:10:54 PM 40.2890 -117.9800 70° East 479 551 35,000  Level FlightAware ADS-B
Tue 03:11:56 PM 40.3280 -117.8320 71° East 478 550 35,000  Level FlightAware ADS-B
Tue 03:12:44 PM 40.3580 -117.7200 71° East 478 550 35,000  Level FlightAware ADS-B
Tue 03:13:23 PM 40.3810 -117.6290 72° East 478 550 35,000  Level FlightAware ADS-B
Tue 03:13:59 PM 40.4030 -117.5450 71° East 478 550 35,000  Level FlightAware ADS-B
Tue 03:14:47 PM 40.4330 -117.4330 71° East 478 550 35,000  Level FlightAware ADS-B
Tue 03:15:33 PM 40.4610 -117.3260 71° East 478 550 35,000  Level FlightAware ADS-B
Tue 03:16:10 PM 40.4840 -117.2390 71° East 478 550 35,000  Level FlightAware ADS-B
Tue 03:16:48 PM 40.5070 -117.1510 71° East 478 550 35,000  Level FlightAware ADS-B
Tue 03:17:34 PM 40.5350 -117.0430 71° East 478 550 35,000  Level FlightAware ADS-B
Tue 03:18:11 PM 40.5580 -116.9560 71° East 478 550 35,000  Level FlightAware ADS-B
Tue 03:18:48 PM 40.5800 -116.8700 71° East 478 550 35,000  Level FlightAware ADS-B
Tue 03:19:36 PM 40.6100 -116.7580 71° East 478 550 35,000  Level FlightAware ADS-B
Tue 03:20:10 PM 40.6300 -116.6780 72° East 478 550 35,000  Level FlightAware ADS-B
Tue 03:20:58 PM 40.6600 -116.5650 71° East 478 550 35,000  Level FlightAware ADS-B
Tue 03:23:15 PM 40.8342 -115.9360 70° East 479 551 35,000  Level FlightAware ADS-B
Tue 03:23:58 PM 40.8653 -115.8180 71° East 478 550 35,000  Level FlightAware ADS-B
Tue 03:27:06 PM 40.9988 -115.3030 71° East 471 542 35,000  Level FlightAware ADS-B
Tue 03:27:37 PM 41.0206 -115.2180 71° East 469 540 35,000  Level FlightAware ADS-B
Tue 03:28:08 PM 41.0417 -115.1360 71° East 468 539 35,000  Level FlightAware ADS-B
Tue 03:28:38 PM 41.0627 -115.0530 71° East 467 537 35,000  Level FlightAware ADS-B
Tue 03:29:08 PM 41.0835 -114.9710 71° East 467 537 35,000  Level FlightAware ADS-B
Tue 03:29:41 PM 41.1059 -114.8820 72° East 466 536 35,000  Level FlightAware ADS-B
Tue 03:30:11 PM 41.1263 -114.8010 71° East 466 536 35,000  Level FlightAware ADS-B
Tue 03:30:43 PM 41.1477 -114.7160 71° East 466 536 35,000  Level FlightAware ADS-B
Tue 03:31:13 PM 41.1685 -114.6330 72° East 468 539 35,000  Level FlightAware ADS-B
Tue 03:31:44 PM 41.1890 -114.5500 72° East 469 540 35,000  Level FlightAware ADS-B
Tue 03:32:14 PM 41.2095 -114.4680 72° East 469 540 35,000  Level FlightAware ADS-B
Tue 03:32:44 PM 41.2300 -114.3850 72° East 469 540 35,000  Level FlightAware ADS-B
Tue 03:33:14 PM 41.2502 -114.3030 72° East 469 540 35,000  Level FlightAware ADS-B
Tue 03:33:52 PM 41.2756 -114.2000 72° East 468 539 35,000  Level FlightAware ADS-B
Tue 03:34:28 PM 41.2997 -114.1010 72° East 467 537 35,000  Level FlightAware ADS-B
Tue 03:35:00 PM 41.3208 -114.0150 72° East 466 536 35,000  Level FlightAware ADS-B
Tue 03:35:31 PM 41.3413 -113.9300 72° East 466 536 35,000  Level FlightAware ADS-B
Tue 03:35:49 PM 41.3526 -113.8810 73° East 466 536 35,000  Level FlightAware ADS-B
Tue 03:36:00 PM 41.3585 -113.8490 76° East 466 536 35,000  Level FlightAware ADS-B
Tue 03:36:20 PM 41.3658 -113.7920 80° East 468 539 35,000  Level FlightAware ADS-B
Tue 03:36:51 PM 41.3727 -113.7050 84° East 469 540 35,000  Level FlightAware ADS-B
Tue 03:37:23 PM 41.3785 -113.6150 85° East 470 541 35,000  Level FlightAware ADS-B
Tue 03:37:53 PM 41.3841 -113.5270 85° East 474 545 35,000  Level FlightAware ADS-B
Tue 03:38:23 PM 41.3897 -113.4390 85° East 475 547 35,000  Level FlightAware ADS-B
Tue 03:38:54 PM 41.3953 -113.3500 85° East 476 548 35,000  Level FlightAware ADS-B
Tue 03:39:25 PM 41.4010 -113.2610 85° East 478 550 35,000  Level FlightAware ADS-B
Tue 03:39:55 PM 41.4065 -113.1730 85° East 477 549 35,000  Level FlightAware ADS-B
Tue 03:40:25 PM 41.4120 -113.0850 85° East 479 551 35,000  Level FlightAware ADS-B
Tue 03:40:55 PM 41.4174 -112.9970 85° East 479 551 35,000  Level FlightAware ADS-B
Tue 03:41:33 PM 41.4242 -112.8840 85° East 479 551 35,000  Level FlightAware ADS-B
Tue 03:42:12 PM 41.4308 -112.7730 85° East 477 549 35,000  Level FlightAware ADS-B
Tue 03:42:45 PM 41.4366 -112.6740 85° East 475 547 35,000  Level FlightAware ADS-B
Tue 03:43:17 PM 41.4418 -112.5830 86° East 475 547 35,000  Level FlightAware ADS-B
Tue 03:43:48 PM 41.4470 -112.4920 86° East 476 548 35,000  Level FlightAware ADS-B
Tue 03:44:18 PM 41.4520 -112.4040 86° East 475 547 35,000  Level FlightAware ADS-B
Tue 03:44:49 PM 41.4570 -112.3120 86° East 475 547 35,000  Level FlightAware ADS-B
Tue 03:45:20 PM 41.4619 -112.2220 86° East 476 548 35,000  Level FlightAware ADS-B
Tue 03:45:56 PM 41.4676 -112.1170 86° East 477 549 35,000  Level FlightAware ADS-B
Tue 03:46:26 PM 41.4722 -112.0290 86° East 478 550 35,000  Level FlightAware ADS-B
Tue 03:47:01 PM 41.4775 -111.9280 86° East 477 549 35,000  Level FlightAware ADS-B
Tue 03:47:33 PM 41.4823 -111.8330 86° East 475 547 35,000  Level FlightAware ADS-B
Tue 03:48:08 PM 41.4874 -111.7310 86° East 474 545 35,000  Level FlightAware ADS-B
Tue 03:48:40 PM 41.4920 -111.6390 86° East 473 544 35,000  Level FlightAware ADS-B
Tue 03:49:10 PM 41.4962 -111.5510 86° East 473 544 35,000  Level FlightAware ADS-B
Tue 03:49:45 PM 41.5010 -111.4500 86° East 472 543 35,000  Level FlightAware ADS-B
Tue 03:50:15 PM 41.5052 -111.3630 86° East 473 544 35,000  Level FlightAware ADS-B
Tue 03:50:46 PM 41.5093 -111.2720 87° East 474 545 35,000  Level FlightAware ADS-B
Tue 03:51:18 PM 41.5135 -111.1790 87° East 476 548 35,000  Level FlightAware ADS-B
Tue 03:51:49 PM 41.5175 -111.0900 87° East 477 549 35,000  Level FlightAware ADS-B
Tue 03:52:25 PM 41.5221 -110.9840 87° East 477 549 35,000  Level FlightAware ADS-B
Tue 03:52:58 PM 41.5262 -110.8890 87° East 475 547 35,000  Level FlightAware ADS-B
Tue 03:53:28 PM 41.5299 -110.8010 87° East 473 544 35,000  Level FlightAware ADS-B
Tue 03:54:23 PM 41.5360 -110.6430 87° East 472 543 35,000  Level FlightAware ADS-B
Tue 03:55:09 PM 41.5420 -110.5110 86° East 471 542 35,000  Level FlightAware ADS-B
Tue 03:55:53 PM 41.5470 -110.3810 87° East 471 542 35,000  Level FlightAware ADS-B
Tue 03:56:32 PM 41.5510 -110.2740 87° East 471 542 35,000  Level FlightAware ADS-B
Tue 03:57:13 PM 41.5550 -110.1730 87° East 471 542 35,000  Level FlightAware ADS-B
Tue 03:58:01 PM 41.5590 -110.0540 87° East 471 542 35,000  Level FlightAware ADS-B
Tue 03:58:35 PM 41.5620 -109.9700 87° East 471 542 35,000  Level FlightAware ADS-B
Tue 03:59:39 PM 41.5690 -109.8120 87° East 471 542 35,000  Level FlightAware ADS-B
Tue 04:00:19 PM 41.5730 -109.7130 87° East 471 542 35,000  Level FlightAware ADS-B
Tue 04:01:05 PM 41.5770 -109.5990 87° East 471 542 35,000  Level FlightAware ADS-B
Tue 04:01:43 PM 41.5810 -109.5050 87° East 471 542 35,000  Level FlightAware ADS-B
Tue 04:02:33 PM 41.5850 -109.3820 87° East 471 542 35,000  Level FlightAware ADS-B
Tue 04:03:07 PM 41.5890 -109.2970 86° East 471 542 35,000  Level FlightAware ADS-B
Tue 04:03:57 PM 41.5940 -109.1740 87° East 471 542 35,000  Level FlightAware ADS-B
Tue 04:04:32 PM 41.5970 -109.0870 87° East 471 542 35,000  Level FlightAware ADS-B
Tue 04:05:20 PM 41.6020 -108.9690 87° East 471 542 35,000  Level FlightAware ADS-B
Tue 04:05:56 PM 41.6050 -108.8790 87° East 471 542 35,000  Level FlightAware ADS-B
Tue 04:06:32 PM 41.6447 -108.5633 87° East 460 529 35,000  Level Salt Lake Center
Tue 04:07:34 PM 41.6669 -108.3731 81° East 463 533 35,000  Level Salt Lake Center
Tue 04:08:35 PM 41.6858 -108.2106 81° East 464 534 35,000  Level Salt Lake Center
Tue 04:09:37 PM 41.7086 -108.0197 81° East 465 535 35,000  Level Salt Lake Center
Tue 04:10:55 PM 41.7319 -107.7983 82° East 466 536 35,000  Level Denver Center
Tue 04:16:53 PM 41.8050 -106.7570 82° East 473 544 35,000  Level FlightAware ADS-B
Tue 04:17:28 PM 41.8110 -106.6670 85° East 473 544 35,000  Level FlightAware ADS-B
Tue 04:18:15 PM 41.8190 -106.5500 85° East 473 544 35,000  Level FlightAware ADS-B
Tue 04:18:51 PM 41.8240 -106.4600 86° East 473 544 35,000  Level FlightAware ADS-B
Tue 04:19:42 PM 41.8320 -106.2610 87° East 471 542 35,000  Level FlightAware ADS-B
Tue 04:20:24 PM 41.8390 -106.1410 85° East 471 542 35,000  Level FlightAware ADS-B
Tue 04:21:00 PM 41.8440 -106.0350 86° East 470 541 35,000  Level FlightAware ADS-B
Tue 04:21:46 PM 41.8570 -105.9060 82° East 462 532 35,000  Level FlightAware ADS-B
Tue 04:22:31 PM 41.8720 -105.7790 81° East 459 528 35,000  Level FlightAware ADS-B
Tue 04:23:09 PM 41.8830 -105.6840 81° East 459 528 35,000  Level FlightAware ADS-B
Tue 04:23:51 PM 41.8970 -105.5640 81° East 458 527 35,000  Level FlightAware ADS-B
Tue 04:24:55 PM 41.9180 -105.3740 81° East 457 526 35,000  Level FlightAware ADS-B
Tue 04:25:34 PM 41.9300 -105.2660 81° East 456 525 35,000  Level FlightAware ADS-B
Tue 04:26:11 PM 41.9422 -105.1600 81° East 456 525 35,000  Level FlightAware ADS-B
Tue 04:26:44 PM 41.9522 -105.0690 82° East 455 524 35,000  Level FlightAware ADS-B
Tue 04:27:14 PM 41.9615 -104.9840 82° East 455 524 35,000  Level FlightAware ADS-B
Tue 04:27:45 PM 41.9708 -104.8990 82° East 455 524 35,000  Level FlightAware ADS-B
Tue 04:28:15 PM 41.9799 -104.8150 82° East 455 524 35,000  Level FlightAware ADS-B
Tue 04:28:46 PM 41.9890 -104.7300 82° East 456 525 35,000  Level FlightAware ADS-B
Tue 04:29:22 PM 41.9998 -104.6280 82° East 456 525 35,000  Level FlightAware ADS-B
Tue 04:29:52 PM 42.0086 -104.5450 82° East 455 524 35,000  Level FlightAware ADS-B
Tue 04:30:22 PM 42.0175 -104.4600 82° East 453 521 35,000  Level FlightAware ADS-B
Tue 04:30:53 PM 42.0262 -104.3760 82° East 453 521 35,000  Level FlightAware ADS-B
Tue 04:31:26 PM 42.0358 -104.2830 82° East 453 521 35,000  Level FlightAware ADS-B
Tue 04:31:56 PM 42.0444 -104.1990 82° East 452 520 35,000  Level FlightAware ADS-B
Tue 04:32:27 PM 42.0530 -104.1140 82° East 452 520 35,000  Level FlightAware ADS-B
Tue 04:32:58 PM 42.0617 -104.0280 82° East 452 520 35,000  Level FlightAware ADS-B
Tue 04:33:28 PM 42.0700 -103.9450 82° East 451 519 35,000  Level FlightAware ADS-B
Tue 04:33:58 PM 42.0784 -103.8600 82° East 451 519 35,000  Level FlightAware ADS-B
Tue 04:34:28 PM 42.0867 -103.7770 82° East 451 519 35,000  Level FlightAware ADS-B
Tue 04:34:59 PM 42.0951 -103.6910 82° East 451 519 35,000  Level FlightAware ADS-B
Tue 04:35:29 PM 42.1032 -103.6070 83° East 451 519 35,000  Level FlightAware ADS-B
Tue 04:35:59 PM 42.1112 -103.5240 83° East 452 520 35,000  Level FlightAware ADS-B
Tue 04:36:30 PM 42.1194 -103.4380 83° East 452 520 35,000  Level FlightAware ADS-B
Tue 04:37:00 PM 42.1274 -103.3540 83° East 452 520 35,000  Level FlightAware ADS-B
Tue 04:37:35 PM 42.1365 -103.2570 83° East 451 519 35,000  Level FlightAware ADS-B
Tue 04:38:05 PM 42.1443 -103.1730 83° East 451 519 35,000  Level FlightAware ADS-B
Tue 04:38:37 PM 42.1525 -103.0840 83° East 451 519 35,000  Level FlightAware ADS-B
Tue 04:39:12 PM 42.1613 -102.9880 83° East 450 518 35,000  Level FlightAware ADS-B
Tue 04:39:43 PM 42.1690 -102.9030 83° East 449 517 35,000  Level FlightAware ADS-B
Tue 04:40:16 PM 42.1773 -102.8110 83° East 448 516 35,000  Level FlightAware ADS-B
Tue 04:40:49 PM 42.1854 -102.7200 83° East 447 514 35,000  Level FlightAware ADS-B
Tue 04:41:22 PM 42.1936 -102.6280 83° East 448 516 35,000  Level FlightAware ADS-B
Tue 04:41:52 PM 42.2008 -102.5450 83° East 447 514 35,000  Level FlightAware ADS-B
Tue 04:42:27 PM 42.2092 -102.4480 83° East 447 514 35,000  Level FlightAware ADS-B
Tue 04:43:18 PM 42.2228 -102.3369 83° East 447 514 35,000  Level Minneapolis Center
Tue 04:44:09 PM 42.2317 -102.1736 86° East 442 509 35,000 159 Level Denver Center
Tue 04:45:11 PM 42.2458 -102.0139 83° East 446 513 35,300 387 Climbing Denver Center
Tue 04:46:13 PM 42.2597 -101.8531 83° East 449 517 35,800 629 Climbing Denver Center
Tue 04:47:15 PM 42.2744 -101.6686 84° East 445 512 36,600 581 Climbing Denver Center
Tue 04:48:17 PM 42.2864 -101.5114 84° East 440 506 37,000 194 Climbing Denver Center
Tue 04:49:19 PM 42.3008 -101.3292 84° East 437 503 37,000  Level Denver Center
Tue 04:50:21 PM 42.3117 -101.1739 85° East 435 501 37,000  Level Denver Center
Tue 04:51:23 PM 42.3250 -100.9908 84° East 436 502 37,000  Level Denver Center
Tue 04:52:25 PM 42.3361 -100.8353 84° East 435 501 37,000  Level Denver Center
Tue 04:53:39 PM 42.3503 -100.6528 84° East 436 502 37,000  Level Denver Center
Tue 04:58:52 PM 42.4092 -99.7529 84° East 448 516 37,000  Level FlightAware ADS-B
Tue 04:59:23 PM 42.4144 -99.6684 85° East 450 518 37,000  Level FlightAware ADS-B
Tue 04:59:53 PM 42.4197 -99.5818 85° East 450 518 37,000  Level FlightAware ADS-B
Tue 05:00:24 PM 42.4248 -99.4974 85° East 452 520 37,000  Level FlightAware ADS-B
Tue 05:00:54 PM 42.4298 -99.4129 85° East 453 521 37,000  Level FlightAware ADS-B
Tue 05:01:27 PM 42.4354 -99.3179 85° East 455 524 37,000  Level FlightAware ADS-B
Tue 05:02:01 PM 42.4410 -99.2216 85° East 457 526 37,000  Level FlightAware ADS-B
Tue 05:03:25 PM 42.4545 -98.9823 86° East 459 528 37,000  Level FlightAware ADS-B
Tue 05:03:55 PM 42.4592 -98.8956 86° East 460 529 37,000  Level FlightAware ADS-B
Tue 05:04:25 PM 42.4639 -98.8091 86° East 460 529 37,000  Level FlightAware ADS-B
Tue 05:04:56 PM 42.4686 -98.7220 86° East 460 529 37,000  Level FlightAware ADS-B
Tue 05:05:22 PM 42.4728 -98.6455 86° East 460 529 37,000  Level FlightAware ADS-B
Tue 05:05:31 PM 42.4750 -98.6223 83° East 457 526 37,000  Level FlightAware ADS-B
Tue 05:05:41 PM 42.4795 -98.5951 77° East 453 521 37,000  Level FlightAware ADS-B
Tue 05:06:18 PM 42.5083 -98.4977 68° East 446 513 37,000  Level FlightAware ADS-B
Tue 05:06:34 PM 42.5107 -98.4906 65° Northeast 445 512 37,000  Level FlightAware ADS-B
Tue 05:07:04 PM 42.5470 -98.3815 66° East 445 512 37,000 79 Level FlightAware ADS-B
Tue 05:07:50 PM 42.5860 -98.2654 65° Northeast 440 506 37,100 395 Climbing FlightAware ADS-B
Tue 05:08:20 PM 42.6109 -98.1904 66° East 432 497 37,500 787 Climbing FlightAware ADS-B
Tue 05:08:51 PM 42.6371 -98.1135 65° Northeast 429 494 37,900 506 Climbing FlightAware ADS-B
Tue 05:11:18 PM 42.6934 -97.7265 79° East 440 506 39,000 371 Climbing FlightAware ADS-B
Tue 05:11:49 PM 42.6950 -97.6411 89° East 445 512 39,000  Level FlightAware ADS-B
Tue 05:12:25 PM 42.6967 -97.5404 89° East 450 518 39,000  Level FlightAware ADS-B
Tue 05:13:13 PM 42.6968 -97.5319 89° East 451 519 39,000  Level FlightAware ADS-B
Tue 05:13:47 PM 42.7002 -97.3071 89° East 455 524 39,000  Level FlightAware ADS-B
Tue 05:14:18 PM 42.7014 -97.2203 89° East 454 522 39,000  Level FlightAware ADS-B
Tue 05:14:48 PM 42.7026 -97.1339 89° East 452 520 39,000  Level FlightAware ADS-B
Tue 05:15:18 PM 42.7036 -97.0484 89° East 449 517 39,000  Level FlightAware ADS-B
Tue 05:15:49 PM 42.7046 -96.9637 89° East 447 514 39,000  Level FlightAware ADS-B
Tue 05:16:19 PM 42.7056 -96.8792 89° East 444 511 39,000  Level FlightAware ADS-B
Tue 05:16:50 PM 42.7065 -96.7919 89° East 441 507 39,000  Level FlightAware ADS-B
Tue 05:17:23 PM 42.7076 -96.7019 89° East 440 506 39,000  Level FlightAware ADS-B
Tue 05:17:53 PM 42.7088 -96.6188 89° East 443 510 39,000  Level FlightAware ADS-B
Tue 05:18:23 PM 42.7100 -96.5334 89° East 448 516 39,000  Level FlightAware ADS-B
Tue 05:18:54 PM 42.7111 -96.4467 89° East 451 519 39,000  Level FlightAware ADS-B
Tue 05:19:45 PM 42.7127 -96.3014 89° East 456 525 39,000  Level FlightAware ADS-B
Tue 05:20:17 PM 42.7136 -96.2118 89° East 455 524 39,000  Level FlightAware ADS-B
Tue 05:20:48 PM 42.7144 -96.1233 89° East 456 525 39,000  Level FlightAware ADS-B
Tue 05:20:58 PM 42.7147 -96.0933 89° East 456 525 39,000  Level FlightAware ADS-B
Tue 05:21:35 PM 42.7156 -95.9886 89° East 455 524 39,000  Level FlightAware ADS-B
Tue 05:22:06 PM 42.7163 -95.8991 89° East 455 524 39,000  Level FlightAware ADS-B
Tue 05:22:37 PM 42.7169 -95.8122 89° East 454 522 39,000  Level FlightAware ADS-B
Tue 05:23:07 PM 42.7174 -95.7249 90° East 453 521 39,000  Level FlightAware ADS-B
Tue 05:23:40 PM 42.7178 -95.6332 90° East 453 521 39,000  Level FlightAware ADS-B
Tue 05:24:10 PM 42.7182 -95.5486 90° East 451 519 39,000  Level FlightAware ADS-B
Tue 05:24:40 PM 42.7186 -95.4636 90° East 450 518 39,000  Level FlightAware ADS-B
Tue 05:25:10 PM 42.7188 -95.3789 90° East 450 518 39,000  Level FlightAware ADS-B
Tue 05:25:40 PM 42.7191 -95.2943 90° East 451 519 39,000  Level FlightAware ADS-B
Tue 05:26:10 PM 42.7191 -95.2077 90° East 452 520 39,000  Level FlightAware ADS-B
Tue 05:26:41 PM 42.7192 -95.1213 90° East 453 521 39,000  Level FlightAware ADS-B
Tue 05:27:12 PM 42.7192 -95.0321 90° East 454 522 39,000  Level FlightAware ADS-B
Tue 05:27:43 PM 42.7191 -94.9431 90° East 456 525 39,000  Level FlightAware ADS-B
Tue 05:28:13 PM 42.7190 -94.8573 90° East 457 526 39,000  Level FlightAware ADS-B
Tue 05:28:44 PM 42.7188 -94.7683 90° East 458 527 39,000  Level FlightAware ADS-B
Tue 05:29:14 PM 42.7186 -94.6822 90° East 457 526 39,000  Level FlightAware ADS-B
Tue 05:29:45 PM 42.7182 -94.5947 90° East 458 527 39,000  Level FlightAware ADS-B
Tue 05:30:17 PM 42.7178 -94.5029 90° East 458 527 39,000  Level FlightAware ADS-B
Tue 05:30:47 PM 42.7174 -94.4168 90° East 457 526 39,000  Level FlightAware ADS-B
Tue 05:31:21 PM 42.7167 -94.3184 91° East 457 526 39,000  Level FlightAware ADS-B
Tue 05:31:56 PM 42.7160 -94.2210 91° East 456 525 39,000  Level FlightAware ADS-B
Tue 05:32:45 PM 42.7148 -94.0790 91° East 456 525 39,000  Level FlightAware ADS-B
Tue 05:33:24 PM 42.7138 -93.9691 91° East 454 522 39,000  Level FlightAware ADS-B
Tue 05:34:08 PM 42.7130 -93.8440 90° East 453 521 39,000  Level FlightAware ADS-B
Tue 05:34:42 PM 42.7120 -93.7490 91° East 452 520 39,000  Level FlightAware ADS-B
Tue 05:35:26 PM 42.7100 -93.6250 91° East 452 520 39,000  Level FlightAware ADS-B
Tue 05:36:07 PM 42.7090 -93.5090 91° East 452 520 39,000  Level FlightAware ADS-B
Tue 05:36:40 PM 42.7070 -93.4150 92° East 452 520 39,000  Level FlightAware ADS-B
Tue 05:37:26 PM 42.7050 -93.2840 91° East 452 520 39,000  Level FlightAware ADS-B
Tue 05:37:58 PM 42.7040 -93.1930 91° East 452 520 39,000  Level FlightAware ADS-B
Tue 05:38:41 PM 42.7020 -93.0710 91° East 453 521 39,000  Level FlightAware ADS-B
Tue 05:39:19 PM 42.7000 -92.9620 91° East 452 520 39,000  Level FlightAware ADS-B
Tue 05:39:57 PM 42.6980 -92.8570 91° East 451 519 39,000  Level FlightAware ADS-B
Tue 05:40:41 PM 42.6950 -92.7300 92° East 452 520 39,000  Level FlightAware ADS-B
Tue 05:41:19 PM 42.6930 -92.6240 91° East 452 520 39,000  Level FlightAware ADS-B
Tue 05:41:53 PM 42.6910 -92.5310 92° East 451 519 39,000  Level FlightAware ADS-B
Tue 05:42:37 PM 42.6880 -92.4080 92° East 451 519 39,000  Level FlightAware ADS-B
Tue 05:43:19 PM 42.6850 -92.2840 92° East 451 519 39,000  Level FlightAware ADS-B
Tue 05:44:02 PM 42.6820 -92.1640 92° East 451 519 39,000  Level FlightAware ADS-B
Tue 05:44:46 PM 42.6790 -92.0390 92° East 451 519 39,000  Level FlightAware ADS-B
Tue 05:45:26 PM 42.6760 -91.9260 92° East 453 521 39,000  Level FlightAware ADS-B
Tue 05:46:11 PM 42.6720 -91.7970 92° East 455 524 39,000  Level FlightAware ADS-B
Tue 05:46:45 PM 42.6690 -91.6990 92° East 457 526 39,000  Level FlightAware ADS-B
Tue 05:47:22 PM 42.6660 -91.5950 92° East 458 527 39,000  Level FlightAware ADS-B
Tue 05:48:06 PM 42.6620 -91.4690 92° East 459 528 39,000  Level FlightAware ADS-B
Tue 05:48:44 PM 42.6590 -91.3580 92° East 460 529 39,000  Level FlightAware ADS-B
Tue 05:49:20 PM 42.6550 -91.2550 93° East 461 531 39,000  Level FlightAware ADS-B
Tue 05:50:06 PM 42.6510 -91.1230 92° East 461 531 39,000  Level FlightAware ADS-B
Tue 05:50:50 PM 42.6460 -90.9960 93° East 462 532 39,000  Level FlightAware ADS-B
Tue 05:51:29 PM 42.6420 -90.8810 93° East 461 531 39,000  Level FlightAware ADS-B
Tue 05:52:12 PM 42.6380 -90.7580 92° East 461 531 39,000  Level FlightAware ADS-B
Tue 05:52:52 PM 42.6330 -90.6440 93° East 461 531 39,000  Level FlightAware ADS-B
Tue 05:53:30 PM 42.6290 -90.5330 93° East 460 529 39,000  Level FlightAware ADS-B
Tue 05:54:08 PM 42.6250 -90.4260 93° East 460 529 39,000  Level FlightAware ADS-B
Tue 05:54:53 PM 42.6190 -90.2970 94° East 460 529 39,000  Level FlightAware ADS-B
Tue 05:55:38 PM 42.6140 -90.1700 93° East 460 529 39,000  Level FlightAware ADS-B
Tue 05:56:17 PM 42.6090 -90.0510 93° East 460 529 39,000  Level FlightAware ADS-B
Tue 05:57:00 PM 42.6030 -89.9300 94° East 461 531 39,000  Level FlightAware ADS-B
Tue 05:57:43 PM 42.5980 -89.8030 93° East 461 531 39,000  Level FlightAware ADS-B
Tue 05:58:26 PM 42.5920 -89.6810 94° East 461 531 39,000  Level FlightAware ADS-B
Tue 05:59:08 PM 42.5860 -89.5590 94° East 461 531 39,000  Level FlightAware ADS-B
Tue 05:59:50 PM 42.5800 -89.4380 94° East 463 533 39,000  Level FlightAware ADS-B
Tue 06:00:30 PM 42.5740 -89.3230 94° East 463 533 39,000  Level FlightAware ADS-B
Tue 06:01:15 PM 42.5680 -89.1910 93° East 463 533 39,000  Level FlightAware ADS-B
Tue 06:01:55 PM 42.5620 -89.0760 94° East 465 535 39,000  Level FlightAware ADS-B
Tue 06:02:34 PM 42.5560 -88.9630 94° East 467 537 39,000  Level FlightAware ADS-B
Tue 06:03:10 PM 42.5500 -88.8580 94° East 470 541 39,000  Level FlightAware ADS-B
Tue 06:03:51 PM 42.5430 -88.7380 94° East 472 543 39,000  Level FlightAware ADS-B
Tue 06:04:33 PM 42.5370 -88.6160 94° East 472 543 39,000  Level FlightAware ADS-B
Tue 06:05:10 PM 42.5300 -88.5080 95° East 472 543 39,000  Level FlightAware ADS-B
Tue 06:05:52 PM 42.5230 -88.3820 94° East 472 543 39,000  Level FlightAware ADS-B
Tue 06:06:32 PM 42.5160 -88.2630 95° East 473 544 39,000  Level FlightAware ADS-B
Tue 06:07:16 PM 42.5080 -88.1350 95° East 474 545 39,000  Level FlightAware ADS-B
Tue 06:07:56 PM 42.5020 -88.0160 94° East 475 547 39,000  Level FlightAware ADS-B
Tue 06:08:42 PM 42.5000 -87.8780 91° East 478 550 39,000  Level FlightAware ADS-B
Tue 06:09:22 PM 42.5000 -87.7610 90° East 478 550 39,000  Level FlightAware ADS-B
Tue 06:09:54 PM 42.5000 -87.6650 90° East 478 550 39,000  Level FlightAware ADS-B
Tue 06:10:40 PM 42.4990 -87.5320 91° East 477 549 39,000  Level FlightAware ADS-B
Tue 06:11:19 PM 42.4990 -87.4610 90° East 476 548 39,000  Level FlightAware ADS-B
Tue 06:11:54 PM 42.4980 -87.3110 90° East 474 545 39,000  Level FlightAware ADS-B
Tue 06:12:54 PM 42.4970 -87.1330 90° East 474 545 39,000  Level FlightAware ADS-B
Tue 06:13:48 PM 42.4960 -86.9680 90° East 475 547 39,000  Level FlightAware ADS-B
Tue 06:14:28 PM 42.4950 -86.8500 91° East 475 547 39,000  Level FlightAware ADS-B
Tue 06:15:08 PM 42.4930 -86.7320 91° East 476 548 39,000  Level FlightAware ADS-B
Tue 06:15:54 PM 42.4920 -86.5950 91° East 476 548 39,000  Level FlightAware ADS-B
Tue 06:16:30 PM 42.4910 -86.4860 91° East 475 547 39,000  Level FlightAware ADS-B
Tue 06:17:14 PM 42.4890 -86.3590 91° East 476 548 39,000  Level FlightAware ADS-B
Tue 06:17:56 PM 42.4870 -86.2320 91° East 476 548 39,000  Level FlightAware ADS-B
Tue 06:18:30 PM 42.4850 -86.1290 91° East 476 548 39,000  Level FlightAware ADS-B
Tue 06:19:10 PM 42.4830 -86.0120 91° East 475 547 39,000  Level FlightAware ADS-B
Tue 06:19:55 PM 42.4810 -85.8800 91° East 475 547 39,000  Level FlightAware ADS-B
Tue 06:20:30 PM 42.4790 -85.7760 91° East 475 547 39,000  Level FlightAware ADS-B
Tue 06:21:16 PM 42.4760 -85.6370 92° East 475 547 39,000  Level FlightAware ADS-B
Tue 06:21:56 PM 42.4740 -85.5210 91° East 475 547 39,000  Level FlightAware ADS-B
Tue 06:22:42 PM 42.4710 -85.3840 92° East 477 549 39,000  Level FlightAware ADS-B
Tue 06:23:20 PM 42.4680 -85.2710 92° East 478 550 39,000  Level FlightAware ADS-B
Tue 06:23:58 PM 42.4650 -85.1550 92° East 483 556 39,000  Level FlightAware ADS-B
Tue 06:24:36 PM 42.4630 -85.0480 91° East 485 558 39,000  Level FlightAware ADS-B
Tue 06:25:24 PM 42.4590 -84.8960 92° East 490 564 39,000  Level FlightAware ADS-B
Tue 06:25:56 PM 42.4560 -84.7960 92° East 493 567 39,000  Level FlightAware ADS-B
Tue 06:26:40 PM 42.4520 -84.6600 92° East 497 572 39,000  Level FlightAware ADS-B
Tue 06:27:22 PM 42.4490 -84.5320 92° East 500 575 39,000  Level FlightAware ADS-B
Tue 06:28:00 PM 42.4450 -84.4110 93° East 503 579 39,000  Level FlightAware ADS-B
Tue 06:28:44 PM 42.4400 -84.2710 93° East 505 581 39,000  Level FlightAware ADS-B
Tue 06:29:24 PM 42.4360 -84.1460 92° East 504 580 39,000  Level FlightAware ADS-B
Tue 06:30:05 PM 42.4320 -84.0220 92° East 504 580 39,000  Level FlightAware ADS-B
Tue 06:30:44 PM 42.4280 -83.9120 93° East 503 579 39,000  Level FlightAware ADS-B
Tue 06:31:24 PM 42.4240 -83.7940 93° East 503 579 39,000  Level FlightAware ADS-B
Tue 06:32:05 PM 42.4190 -83.6710 93° East 502 578 39,000  Level FlightAware ADS-B
Tue 06:32:42 PM 42.4150 -83.5480 92° East 502 578 39,000  Level FlightAware ADS-B
Tue 06:33:21 PM 42.4100 -83.4290 93° East 501 577 39,000  Level FlightAware ADS-B
Tue 06:34:06 PM 42.4040 -83.2840 93° East 500 575 39,000  Level FlightAware ADS-B
Tue 06:34:46 PM 42.3990 -83.1640 93° East 501 577 39,000  Level FlightAware ADS-B
Tue 06:35:32 PM 42.3930 -83.0160 93° East 501 577 39,000  Level FlightAware ADS-B
Tue 06:36:09 PM 42.3880 -82.8940 93° East 501 577 39,000  Level FlightAware ADS-B
Tue 06:36:55 PM 42.3820 -82.7600 93° East 499 574 39,000  Level FlightAware ADS-B
Tue 06:37:29 PM 42.3770 -82.6520 94° East 499 574 39,000  Level FlightAware ADS-B
Tue 06:38:10 PM 42.3720 -82.5200 93° East 498 573 39,000  Level FlightAware ADS-B
Tue 06:38:51 PM 42.3670 -82.3870 93° East 497 572 39,000  Level FlightAware ADS-B
Tue 06:39:40 PM 42.3610 -82.2410 93° East 496 571 39,000  Level FlightAware ADS-B
Tue 06:40:23 PM 42.3550 -82.1120 94° East 495 570 39,000  Level FlightAware ADS-B
Tue 06:41:19 PM 42.3480 -81.9440 93° East 495 570 39,000  Level FlightAware ADS-B
Tue 06:41:58 PM 42.3420 -81.8210 94° East 494 568 39,000  Level FlightAware ADS-B
Tue 06:42:41 PM 42.3360 -81.6890 93° East 494 568 39,000  Level FlightAware ADS-B
Tue 06:43:24 PM 42.3300 -81.5570 93° East 493 567 39,000  Level FlightAware ADS-B
Tue 06:44:07 PM 42.3240 -81.4250 93° East 493 567 39,000  Level FlightAware ADS-B
Tue 06:44:41 PM 42.3190 -81.3200 94° East 493 567 39,000  Level FlightAware ADS-B
Tue 06:45:20 PM 42.3130 -81.1990 94° East 493 567 39,000  Level FlightAware ADS-B
Tue 06:46:08 PM 42.3060 -81.0580 94° East 491 565 39,000  Level FlightAware ADS-B
Tue 06:46:42 PM 42.3000 -80.9520 94° East 491 565 39,000  Level FlightAware ADS-B
Tue 06:47:21 PM 42.2940 -80.8360 94° East 490 564 39,000  Level FlightAware ADS-B
Tue 06:48:03 PM 42.2850 -80.6830 94° East 491 565 39,000  Level FlightAware ADS-B
Tue 06:48:50 PM 42.2780 -80.5430 94° East 489 563 39,000  Level FlightAware ADS-B
Tue 06:49:28 PM 42.2720 -80.4500 95° East 489 563 39,000  Level FlightAware ADS-B
Tue 06:50:11 PM 42.2650 -80.3260 94° East 489 563 39,000  Level FlightAware ADS-B
Tue 06:50:50 PM 42.2580 -80.1970 94° East 489 563 39,000  Level FlightAware ADS-B
Tue 06:51:30 PM 42.2500 -80.0750 95° East 489 563 39,000  Level FlightAware ADS-B
Tue 06:52:09 PM 42.2430 -79.9600 95° East 488 562 39,000  Level FlightAware ADS-B
Tue 06:52:56 PM 42.2340 -79.8140 95° East 487 560 39,000  Level FlightAware ADS-B
Tue 06:53:30 PM 42.2280 -79.7120 95° East 486 559 39,000  Level FlightAware ADS-B
Tue 06:54:17 PM 42.2190 -79.5780 95° East 486 559 39,000  Level FlightAware ADS-B
Tue 06:55:00 PM 42.2100 -79.4370 95° East 486 559 39,000  Level FlightAware ADS-B
Tue 06:55:35 PM 42.2030 -79.3350 95° East 487 560 39,000  Level FlightAware ADS-B
Tue 06:56:22 PM 42.1940 -79.1920 95° East 488 562 39,000  Level FlightAware ADS-B
Tue 06:57:19 PM 42.1670 -79.0340 103° East 474 545 39,000  Level FlightAware ADS-B
Tue 06:58:01 PM 42.1320 -78.8930 108° East 471 542 39,000  Level FlightAware ADS-B
Tue 06:58:45 PM 42.1010 -78.7690 109° East 472 543 39,000  Level FlightAware ADS-B
Tue 06:59:25 PM 42.0730 -78.6590 109° East 473 544 39,000  Level FlightAware ADS-B
Tue 07:00:06 PM 42.0450 -78.5480 109° East 473 544 39,000  Level FlightAware ADS-B
Tue 07:00:43 PM 42.0180 -78.4420 109° East 473 544 39,000  Level FlightAware ADS-B
Tue 07:01:25 PM 41.9870 -78.3240 109° East 473 544 39,000  Level FlightAware ADS-B
Tue 07:02:06 PM 41.9590 -78.2130 109° East 474 545 39,000  Level FlightAware ADS-B
Tue 07:02:49 PM 41.9280 -78.0920 109° East 475 547 39,000  Level FlightAware ADS-B
Tue 07:03:25 PM 41.9020 -77.9950 110° East 475 547 39,000  Level FlightAware ADS-B
Tue 07:04:11 PM 41.8680 -77.8640 109° East 476 548 39,000  Level FlightAware ADS-B
Tue 07:04:55 PM 41.8360 -77.7420 109° East 477 549 39,000  Level FlightAware ADS-B
Tue 07:05:33 PM 41.8080 -77.6360 109° East 478 550 39,000  Level FlightAware ADS-B
Tue 07:06:10 PM 41.7810 -77.5350 110° East 479 551 39,000  Level FlightAware ADS-B
Tue 07:06:53 PM 41.7490 -77.4130 109° East 480 552 39,000  Level FlightAware ADS-B
Tue 07:07:33 PM 41.7190 -77.3000 110° East 482 555 39,000  Level FlightAware ADS-B
Tue 07:08:07 PM 41.6930 -77.2060 110° East 482 555 39,000  Level FlightAware ADS-B
Tue 07:08:53 PM 41.6580 -77.0750 110° East 482 555 39,000  Level FlightAware ADS-B
Tue 07:09:13 PM 41.6427 -77.0183 110° East 483 556 39,000  Level FlightAware ADS-B
Tue 07:09:55 PM 41.6115 -76.9031 110° East 483 556 39,000  Level FlightAware ADS-B
Tue 07:10:31 PM 41.5840 -76.8025 110° East 482 555 39,000  Level FlightAware ADS-B
Tue 07:11:05 PM 41.5576 -76.7059 110° East 483 556 39,000  Level FlightAware ADS-B
Tue 07:11:40 PM 41.5307 -76.6082 110° East 482 555 39,000  Level FlightAware ADS-B
Tue 07:12:13 PM 41.5053 -76.5161 110° East 482 555 39,000  Level FlightAware ADS-B
Tue 07:12:43 PM 41.4820 -76.4321 110° East 482 555 39,000  Level FlightAware ADS-B
Tue 07:13:15 PM 41.4577 -76.3448 110° East 483 556 39,000  Level FlightAware ADS-B
Tue 07:13:47 PM 41.4331 -76.2564 110° East 483 556 39,000 -667 Level FlightAware ADS-B
Tue 07:14:18 PM 41.4087 -76.1695 110° East 488 562 38,300 -1,905 Descending FlightAware ADS-B
Tue 07:14:50 PM 41.3827 -76.0770 111° Southeast 495 570 37,000 -2,419 Descending FlightAware ADS-B
Tue 07:15:20 PM 41.3586 -75.9916 111° Southeast 494 568 35,800 -2,613 Descending FlightAware ADS-B
Tue 07:15:52 PM 41.3334 -75.9020 111° Southeast 495 570 34,300 -3,000 Descending FlightAware ADS-B
Tue 07:16:22 PM 41.3089 -75.8158 111° Southeast 497 572 32,700 -3,246 Descending FlightAware ADS-B
Tue 07:16:53 PM 41.2835 -75.7274 111° Southeast 500 575 31,000 -3,484 Descending FlightAware ADS-B
Tue 07:17:24 PM 41.2562 -75.6396 112° Southeast 504 580 29,100 -3,810 Descending FlightAware ADS-B
Tue 07:17:56 PM 41.2257 -75.5474 114° Southeast 512 589 27,000 -3,563 Descending FlightAware ADS-B
Tue 07:18:28 PM 41.1959 -75.4583 114° Southeast 507 583 25,300 -3,094 Descending FlightAware ADS-B
Tue 07:19:00 PM 41.1653 -75.3673 114° Southeast 494 568 23,700 -2,095 Descending FlightAware ADS-B
Tue 07:19:31 PM 41.1378 -75.2857 114° Southeast 463 533 23,100 -689 Descending FlightAware ADS-B
Tue 07:20:01 PM 41.1113 -75.2073 114° Southeast 461 531 23,000 -143 Descending FlightAware ADS-B
Tue 07:20:13 PM 41.1009 -75.1761 114° Southeast 468 539 23,000  Level FlightAware ADS-B
Tue 07:20:22 PM 41.0942 -75.1516 110° East 477 549 23,000  Level FlightAware ADS-B
Tue 07:20:54 PM 41.0739 -75.0610 107° East 492 566 23,000 -95 Level FlightAware ADS-B
Tue 07:21:25 PM 41.0588 -74.9683 102° East 500 575 22,900 -689 Descending FlightAware ADS-B
Tue 07:21:55 PM 41.0471 -74.8809 100° East 458 527 22,300 -1,024 Descending FlightAware ADS-B
Tue 07:22:06 PM 41.0426 -74.8532 102° East 443 510 22,200 -545 Descending FlightAware ADS-B
Tue 07:22:39 PM 41.0269 -74.7686 104° East 425 489 21,900 -738 Descending FlightAware ADS-B
Tue 07:23:11 PM 41.0116 -74.6869 104° East 423 487 21,400 -857 Descending FlightAware ADS-B
Tue 07:23:42 PM 40.9977 -74.6089 103° East 435 501 21,000 -787 Descending FlightAware ADS-B
Tue 07:24:12 PM 40.9839 -74.5295 103° East 446 513 20,600 -885 Descending FlightAware ADS-B
Tue 07:24:43 PM 40.9696 -74.4465 103° East 452 520 20,100 -923 Descending FlightAware ADS-B
Tue 07:25:17 PM 40.9537 -74.3548 103° East 457 526 19,600 -806 Descending FlightAware ADS-B
Tue 07:25:50 PM 40.9380 -74.2653 103° East 460 529 19,200 -692 Descending FlightAware ADS-B
Tue 07:26:09 PM 40.9290 -74.2141 103° East 458 527 19,000 -545 Descending FlightAware ADS-B
Tue 07:26:12 PM 40.9274 -74.2055 104° East 444 511 19,000  Level FlightAware ADS-B
Tue 07:26:17 PM 40.9243 -74.1913 106° East 437 503 19,000  Level FlightAware ADS-B
Tue 07:26:26 PM 40.9184 -74.1695 110° East 422 486 19,000  Level FlightAware ADS-B
Tue 07:26:31 PM 40.9151 -74.1597 114° Southeast 415 478 19,000  Level FlightAware ADS-B
Tue 07:26:37 PM 40.9098 -74.1463 118° Southeast 405 466 19,000  Level FlightAware ADS-B
Tue 07:26:47 PM 40.8992 -74.1250 123° Southeast 379 436 19,000 -273 Level FlightAware ADS-B
Tue 07:26:59 PM 40.8868 -74.1061 131° Southeast 359 413 18,900 -750 Descending FlightAware ADS-B
Tue 07:27:03 PM 40.8823 -74.1005 137° Southeast 352 405 18,800 -1,500 Descending FlightAware ADS-B
Tue 07:27:07 PM 40.8763 -74.0941 141° Southeast 346 398 18,700 -1,333 Descending FlightAware ADS-B
Tue 07:27:12 PM 40.8700 -74.0883 145° Southeast 342 394 18,600 -1,161 Descending FlightAware ADS-B
Tue 07:27:38 PM 40.8361 -74.0626 150° Southeast 326 375 18,100 -938 Descending FlightAware ADS-B
Tue 07:27:44 PM 40.8280 -74.0568 152° Southeast 324 373 18,100 -923 Level FlightAware ADS-B
Tue 07:28:04 PM 40.8022 -74.0383 152° Southeast 314 361 17,700 -1,043 Descending FlightAware ADS-B
Tue 07:28:07 PM 40.7978 -74.0356 155° Southeast 314 361 17,700 -1,400 Level FlightAware ADS-B
Tue 07:28:34 PM 40.7622 -74.0157 157° South 314 361 17,000 -1,579 Descending FlightAware ADS-B
Tue 07:29:04 PM 40.7216 -73.9943 158° South 313 360 16,200 -1,500 Descending FlightAware ADS-B
Tue 07:29:34 PM 40.6808 -73.9732 159° South 308 354 15,500 -1,377 Descending FlightAware ADS-B
Tue 07:30:05 PM 40.6400 -73.9521 159° South 304 350 14,800 -1,452 Descending FlightAware ADS-B
Tue 07:30:36 PM 40.6001 -73.9336 161° South 298 343 14,000 -1,500 Descending FlightAware ADS-B
Tue 07:31:09 PM 40.5564 -73.9145 162° South 295 339 13,200 -1,125 Descending FlightAware ADS-B
Tue 07:31:40 PM 40.5171 -73.8977 162° South 282 325 12,800 -476 Descending FlightAware ADS-B
Tue 07:32:12 PM 40.4799 -73.8814 162° South 258 297 12,700 -387 Descending FlightAware ADS-B
Tue 07:32:42 PM 40.4472 -73.8665 161° South 242 278 12,400 -857 Descending FlightAware ADS-B
Tue 07:33:15 PM 40.4130 -73.8503 160° South 240 276 11,800 -1,273 Descending FlightAware ADS-B
Tue 07:33:48 PM 40.3779 -73.8332 160° South 242 278 11,000 -1,200 Descending FlightAware ADS-B
Tue 07:34:20 PM 40.3448 -73.8167 159° South 242 278 10,500 -1,048 Descending FlightAware ADS-B
Tue 07:34:51 PM 40.3128 -73.8006 159° South 241 277 9,900 -1,077 Descending FlightAware ADS-B
Tue 07:34:59 PM 40.3044 -73.7942 150° Southeast 247 284 9,800 -923 Descending FlightAware ADS-B
Tue 07:35:04 PM 40.2999 -73.7888 138° Southeast 253 291 9,700 -923 Descending FlightAware ADS-B
Tue 07:35:12 PM 40.2950 -73.7795 125° Southeast 257 296 9,600 -1,059 Descending FlightAware ADS-B
Tue 07:35:21 PM 40.2913 -73.7656 109° East 265 305 9,400 -1,200 Descending FlightAware ADS-B
Tue 07:35:27 PM 40.2907 -73.7559 95° East 271 312 9,300 -923 Descending FlightAware ADS-B
Tue 07:35:34 PM 40.2917 -73.7444 83° East 275 316 9,200 -1,200 Descending FlightAware ADS-B
Tue 07:35:37 PM 40.2926 -73.7390 78° East 276 318 9,100 -1,500 Descending FlightAware ADS-B
Tue 07:35:46 PM 40.2955 -73.7252 75° East 277 319 8,900 -1,250 Descending FlightAware ADS-B
Tue 07:36:01 PM 40.3039 -73.7024 64° Northeast 282 325 8,600 -909 Descending FlightAware ADS-B
Tue 07:36:19 PM 40.3191 -73.6794 49° Northeast 283 326 8,400 -511 Descending FlightAware ADS-B
Tue 07:36:48 PM 40.3447 -73.6422 48° Northeast 281 323 8,200 -367 Descending FlightAware ADS-B
Tue 07:37:08 PM 40.3648 -73.6218 38° Northeast 279 321 8,100 -462 Descending FlightAware ADS-B
Tue 07:37:14 PM 40.3714 -73.6166 31° Northeast 276 318 8,000 -571 Descending FlightAware ADS-B
Tue 07:37:29 PM 40.3883 -73.6037 30° Northeast 276 318 7,900 -375 Descending FlightAware ADS-B
Tue 07:37:46 PM 40.4067 -73.5897 30° Northeast 276 318 7,800 -171 Descending FlightAware ADS-B
Tue 07:38:04 PM 40.4261 -73.5751 30° Northeast 274 315 7,800 -176 Level FlightAware ADS-B
Tue 07:38:20 PM 40.4434 -73.5620 30° Northeast 271 312 7,700 -581 Descending FlightAware ADS-B
Tue 07:38:35 PM 40.4597 -73.5495 30° Northeast 268 308 7,500 -923 Descending FlightAware ADS-B
Tue 07:38:59 PM 40.4852 -73.5299 30° Northeast 269 310 7,100 -923 Descending FlightAware ADS-B
Tue 07:39:14 PM 40.5024 -73.5167 30° Northeast 268 308 6,900 -885 Descending FlightAware ADS-B
Tue 07:40:00 PM 40.5500 -73.4810 30° Northeast 262 302 6,200 -923 Descending FlightAware ADS-B
Tue 07:40:32 PM 40.5840 -73.4550 30° Northeast 255 293 5,700 -900 Descending FlightAware ADS-B
Tue 07:41:00 PM 40.6130 -73.4340 29° Northeast 254 292 5,300 -947 Descending FlightAware ADS-B
Tue 07:41:29 PM 40.6440 -73.4200 19° North 247 284 4,800 -1,114 Descending FlightAware ADS-B
Tue 07:42:10 PM 40.6900 -73.4220 358° North 240 276 4,000 -1,015 Descending FlightAware ADS-B
Tue 07:42:34 PM 40.7170 -73.4270 352° North 237 273 3,700 -875 Descending FlightAware ADS-B
Tue 07:42:58 PM 40.7430 -73.4310 353° North 236 272 3,300 -1,019 Descending FlightAware ADS-B
Tue 07:43:27 PM 40.7690 -73.4470 335° Northwest 219 252 2,800 -1,138 Descending FlightAware ADS-B
Tue 07:43:56 PM 40.7920 -73.4700 323° Northwest 220 253 2,200 -727 Descending FlightAware ADS-B
Tue 07:44:33 PM 40.8190 -73.4990 321° Northwest 222 255 2,000 -533 Descending FlightAware ADS-B
Tue 07:44:41 PM 40.8180 -73.5160 266° West 187 215 1,800 -308 Descending FlightAware ADS-B
Tue 07:45:12 PM 40.8230 -73.5480 282° West 174 200 1,800  Level FlightAware ADS-B
Tue 07:45:54 PM 40.8200 -73.5880 264° West 161 185 1,800  Level FlightAware ADS-B
Tue 07:46:30 PM 40.8050 -73.6200 238° Southwest 163 188 1,800  Level FlightAware ADS-B
Tue 07:46:49 PM 40.7950 -73.6340 227° Southwest 158 182 1,800  Level FlightAware ADS-B
Tue 07:47:09 PM 40.7840 -73.6460 220° Southwest 160 184 1,800  Level FlightAware ADS-B
Tue 07:47:44 PM 40.7630 -73.6630 212° Southwest 157 181 1,800  Level FlightAware ADS-B
Tue 07:48:10 PM 40.7470 -73.6750 210° Southwest 151 174 1,800 -207 Level FlightAware ADS-B
Tue 07:48:42 PM 40.7280 -73.6900 211° Southwest 144 166 1,600 -492 Descending FlightAware ADS-B
Tue 07:49:11 PM 40.7120 -73.7020 210° Southwest 125 144 1,300 -679 Descending FlightAware ADS-B
Tue 07:49:35 PM 40.7000 -73.7120 212° Southwest 126 145 1,000 -632 Descending FlightAware ADS-B
Tue 07:49:49 PM 40.6940 -73.7170 212° Southwest 122 140 900 -558 Descending FlightAware ADS-B
Tue 07:50:18 PM 40.6800 -73.7280 211° Southwest 123 142 600 -632 Descending FlightAware ADS-B
Tue 07:50:46 PM 40.6660 -73.7390 211° Southwest 122 140 300 -643 Descending FlightAware ADS-B
Tue 07:51:14 PM 40.6530 -73.7490 210° Southwest 124 143 -643 Descending FlightAware ADS-B
Tue 07:51:42 PM 40.6380 -73.7600 209° Southwest 124 143  Level FlightAware ADS-B
Tue 07:52:10 PM 40.6300 -73.7670 214° Southwest 36 41  Level FlightAware ADS-B
Tue 07:52:24 PM 40.6290 -73.7690 237° Southwest 20 23  Level FlightAware ADS-B

Login

Don't have an account? Register now (free) for customized features, flight alerts, and more!